createdAt,value
2023-02-23T00:01:51.429Z,3.66
2023-02-23T00:04:18.821Z,3.69
2023-02-23T00:06:46.106Z,3.70
2023-02-23T00:09:24.115Z,3.71
2023-02-23T00:11:52.949Z,3.69
2023-02-23T00:14:24.713Z,3.64
2023-02-23T00:16:51.915Z,3.61
2023-02-23T00:19:19.215Z,3.60
2023-02-23T00:21:49.151Z,3.64
2023-02-23T00:24:16.878Z,3.59
2023-02-23T00:26:45.395Z,3.60
2023-02-23T00:29:17.446Z,3.58
2023-02-23T00:31:45.719Z,3.55
2023-02-23T00:34:14.790Z,3.52
2023-02-23T00:36:42.514Z,3.50
2023-02-23T00:39:21.870Z,3.46
2023-02-23T00:41:49.661Z,3.43
2023-02-23T00:44:16.680Z,3.45
2023-02-23T00:46:44.863Z,3.45
2023-02-23T00:49:12.796Z,3.43
2023-02-23T00:51:41.835Z,3.42
2023-02-23T00:54:08.986Z,3.43
2023-02-23T00:56:38.594Z,3.42
2023-02-23T00:59:05.566Z,3.43
2023-02-23T01:01:33.140Z,3.37
2023-02-23T01:04:01.320Z,3.37
2023-02-23T01:06:28.651Z,3.31
2023-02-23T01:08:58.056Z,3.27
2023-02-23T01:11:31.093Z,3.27
2023-02-23T01:13:59.975Z,3.23
2023-02-23T01:16:28.596Z,3.21
2023-02-23T01:18:58.947Z,3.21
2023-02-23T01:21:31.225Z,3.31
2023-02-23T01:23:59.716Z,3.26
2023-02-23T01:26:31.846Z,3.23
2023-02-23T01:29:11.529Z,3.20
2023-02-23T01:31:39.935Z,3.17
2023-02-23T01:34:11.923Z,3.16
2023-02-23T01:36:40.101Z,3.17
2023-02-23T01:39:09.258Z,3.16
2023-02-23T01:41:37.184Z,3.16
2023-02-23T01:44:08.289Z,3.12
2023-02-23T01:46:39.261Z,3.08
2023-02-23T01:49:12.538Z,3.01
2023-02-23T01:51:42.983Z,2.94
2023-02-23T01:54:16.046Z,2.88
2023-02-23T01:56:45.960Z,2.83
2023-02-23T01:59:15.329Z,2.80
2023-02-23T02:01:43.271Z,2.79
2023-02-23T02:04:16.666Z,2.77
2023-02-23T02:06:45.871Z,2.79
2023-02-23T02:09:19.768Z,2.81
2023-02-23T02:11:54.225Z,2.84
2023-02-23T02:14:30.960Z,2.81
2023-02-23T02:17:10.790Z,2.77
2023-02-23T02:19:40.706Z,2.72
2023-02-23T02:22:46.445Z,2.67
2023-02-23T02:25:22.114Z,2.67
2023-02-23T02:28:08.908Z,2.71
2023-02-23T02:30:41.865Z,2.72
2023-02-23T02:33:11.206Z,2.70
2023-02-23T02:35:56.899Z,2.69
2023-02-23T02:38:34.809Z,2.65
2023-02-23T02:41:21.918Z,2.63
2023-02-23T02:43:55.078Z,2.61
2023-02-23T02:46:25.172Z,2.59
2023-02-23T02:48:57.805Z,2.62
2023-02-23T02:51:32.316Z,2.61
2023-02-23T02:54:00.299Z,2.61
2023-02-23T02:56:27.425Z,2.58
2023-02-23T02:58:56.148Z,2.57
2023-02-23T03:01:41.883Z,2.59
2023-02-23T03:04:41.947Z,2.59
2023-02-23T03:07:32.649Z,2.66
2023-02-23T03:10:38.655Z,2.65
2023-02-23T03:13:34.254Z,2.61
2023-02-23T03:16:35.585Z,2.54
2023-02-23T03:19:30.169Z,2.47
2023-02-23T03:22:19.131Z,2.43
2023-02-23T03:25:04.496Z,2.41
2023-02-23T03:27:54.209Z,2.43
2023-02-23T03:30:45.994Z,2.44
2023-02-23T03:33:37.524Z,2.41
2023-02-23T03:36:28.317Z,2.36
2023-02-23T03:39:25.336Z,2.33
2023-02-23T03:42:12.240Z,2.32
2023-02-23T03:44:59.595Z,2.29
2023-02-23T03:47:48.232Z,2.29
2023-02-23T03:50:42.671Z,2.28
2023-02-23T03:53:29.202Z,2.25
2023-02-23T03:56:18.227Z,2.23
2023-02-23T03:59:08.910Z,2.20
2023-02-23T04:01:55.750Z,2.20
2023-02-23T04:04:42.529Z,2.20
2023-02-23T04:07:29.536Z,2.22
2023-02-23T04:10:15.049Z,2.24
2023-02-23T04:13:03.991Z,2.25
2023-02-23T04:15:36.488Z,2.26
2023-02-23T04:18:04.857Z,2.27
2023-02-23T04:20:32.268Z,2.26
2023-02-23T04:22:59.566Z,2.28
2023-02-23T04:25:26.910Z,2.29
2023-02-23T04:27:54.093Z,2.29
2023-02-23T04:30:21.615Z,2.34
2023-02-23T04:32:51.335Z,2.37
2023-02-23T04:35:18.431Z,2.42
2023-02-23T04:37:45.650Z,2.45
2023-02-23T04:40:12.742Z,2.44
2023-02-23T04:42:40.382Z,2.49
2023-02-23T04:45:10.121Z,2.53
2023-02-23T04:47:37.455Z,2.54
2023-02-23T04:50:07.776Z,2.65
2023-02-23T04:52:35.183Z,2.76
2023-02-23T04:55:04.543Z,2.73
2023-02-23T04:57:31.699Z,2.80
2023-02-23T04:59:58.650Z,2.90
2023-02-23T05:02:26.235Z,2.99
2023-02-23T05:04:53.206Z,3.00
2023-02-23T05:07:20.359Z,2.96
2023-02-23T05:09:47.273Z,2.99
2023-02-23T05:12:14.555Z,2.96
2023-02-23T05:14:42.143Z,2.93
2023-02-23T05:17:09.353Z,2.95
2023-02-23T05:19:38.666Z,2.93
2023-02-23T05:22:06.471Z,2.94
2023-02-23T05:24:33.487Z,2.94
2023-02-23T05:27:00.751Z,2.97
2023-02-23T05:29:27.699Z,2.98
2023-02-23T05:31:55.196Z,2.96
2023-02-23T05:34:22.222Z,2.99
2023-02-23T05:36:49.520Z,3.06
2023-02-23T05:39:16.762Z,3.05
2023-02-23T05:41:44.195Z,3.06
2023-02-23T05:44:11.050Z,3.14
2023-02-23T05:46:38.530Z,3.09
2023-02-23T05:49:05.535Z,3.09
2023-02-23T05:51:34.354Z,3.06
2023-02-23T05:54:01.851Z,3.07
2023-02-23T05:56:29.183Z,3.04
2023-02-23T05:59:00.233Z,3.08
2023-02-23T06:01:27.899Z,3.07
2023-02-23T06:03:55.740Z,3.12
2023-02-23T06:06:24.192Z,3.21
2023-02-23T06:08:52.037Z,3.35
2023-02-23T06:11:20.265Z,3.42
2023-02-23T06:13:48.086Z,3.51
2023-02-23T06:16:15.373Z,3.66
2023-02-23T06:18:42.297Z,3.71
2023-02-23T06:21:09.544Z,3.87
2023-02-23T06:23:39.067Z,3.94
2023-02-23T06:26:06.430Z,4.02
2023-02-23T06:28:33.553Z,4.09
2023-02-23T06:31:00.832Z,4.18
2023-02-23T06:33:27.886Z,4.24
2023-02-23T06:35:55.881Z,4.36
2023-02-23T06:38:24.030Z,4.44
2023-02-23T06:40:51.420Z,4.52
2023-02-23T06:43:18.343Z,4.66
2023-02-23T06:45:46.661Z,4.70
2023-02-23T06:48:13.816Z,4.76
2023-02-23T06:50:41.071Z,4.84
2023-02-23T06:53:08.533Z,4.93
2023-02-23T06:55:35.891Z,5.00
2023-02-23T06:58:08.352Z,5.10
2023-02-23T07:00:35.518Z,5.21
2023-02-23T07:03:02.614Z,5.34
2023-02-23T07:05:30.512Z,5.41
2023-02-23T07:07:57.469Z,5.48
2023-02-23T07:10:24.718Z,5.52
2023-02-23T07:12:53.360Z,5.63
2023-02-23T07:15:20.873Z,5.73
2023-02-23T07:17:49.053Z,5.81
2023-02-23T07:20:16.487Z,5.87
2023-02-23T07:22:43.660Z,5.95
2023-02-23T07:25:11.448Z,6.09
2023-02-23T07:27:38.635Z,6.15
2023-02-23T07:30:06.172Z,6.23
2023-02-23T07:32:33.385Z,6.35
2023-02-23T07:35:00.703Z,6.48
2023-02-23T07:37:27.633Z,6.65
2023-02-23T07:39:54.924Z,6.75
2023-02-23T07:42:21.841Z,6.87
2023-02-23T07:44:49.202Z,6.98
2023-02-23T07:47:16.095Z,6.97
2023-02-23T07:49:48.056Z,7.05
2023-02-23T07:52:17.470Z,7.10
2023-02-23T07:54:44.687Z,7.13
2023-02-23T07:57:11.745Z,7.18
2023-02-23T07:59:39.458Z,7.20
2023-02-23T08:02:07.082Z,7.24
2023-02-23T08:04:34.300Z,7.32
2023-02-23T08:07:01.231Z,7.43
2023-02-23T08:09:32.753Z,7.40
2023-02-23T08:11:59.737Z,7.54
2023-02-23T08:14:27.253Z,7.66
2023-02-23T08:16:54.268Z,7.72
2023-02-23T08:19:24.391Z,7.75
2023-02-23T08:21:51.397Z,7.76
2023-02-23T08:24:18.648Z,7.88
2023-02-23T08:26:45.524Z,8.07
2023-02-23T08:29:12.686Z,8.13
2023-02-23T08:31:39.852Z,8.35
2023-02-23T08:34:07.167Z,8.62
2023-02-23T08:36:34.168Z,9.28
2023-02-23T08:39:02.416Z,9.89
2023-02-23T08:41:29.461Z,9.96
2023-02-23T08:43:58.152Z,10.01
2023-02-23T08:46:27.522Z,9.54
2023-02-23T08:48:55.765Z,9.47
2023-02-23T08:51:22.680Z,9.44
2023-02-23T08:53:52.287Z,9.53
2023-02-23T08:56:19.241Z,9.66
2023-02-23T08:58:49.054Z,9.82
2023-02-23T09:01:18.607Z,9.80
2023-02-23T09:03:46.130Z,10.08
2023-02-23T09:06:15.167Z,10.10
2023-02-23T09:08:44.679Z,9.97
2023-02-23T09:11:11.633Z,10.20
2023-02-23T09:13:38.876Z,10.19
2023-02-23T09:16:07.796Z,10.46
2023-02-23T09:18:35.138Z,10.47
2023-02-23T09:21:06.573Z,10.37
2023-02-23T09:23:37.741Z,10.29
2023-02-23T09:26:08.955Z,10.42
2023-02-23T09:28:40.545Z,10.36
2023-02-23T09:31:07.626Z,10.20
2023-02-23T09:33:35.143Z,10.55
2023-02-23T09:36:05.067Z,10.55
2023-02-23T09:38:32.644Z,10.38
2023-02-23T09:41:02.594Z,10.62
2023-02-23T09:43:40.739Z,10.85
2023-02-23T09:46:14.536Z,10.87
2023-02-23T09:48:43.251Z,10.90
2023-02-23T09:51:15.406Z,11.29
2023-02-23T09:53:44.806Z,11.26
2023-02-23T09:56:17.023Z,11.38
2023-02-23T09:58:44.809Z,11.60
2023-02-23T10:01:11.860Z,11.69
2023-02-23T10:03:52.785Z,11.89
2023-02-23T10:06:21.141Z,11.38
2023-02-23T10:08:59.214Z,11.50
2023-02-23T10:11:44.669Z,11.48
2023-02-23T10:14:14.973Z,11.20
2023-02-23T10:17:00.968Z,11.37
2023-02-23T10:19:31.288Z,11.44
2023-02-23T10:22:02.065Z,11.46
2023-02-23T10:24:38.524Z,11.77
2023-02-23T10:27:16.604Z,12.02
2023-02-23T10:29:46.968Z,12.20
2023-02-23T10:32:32.636Z,12.13
2023-02-23T10:34:59.908Z,11.74
2023-02-23T10:37:27.645Z,12.11
2023-02-23T10:39:57.411Z,12.29
2023-02-23T10:42:29.141Z,12.54
2023-02-23T10:44:56.943Z,12.43
2023-02-23T10:47:28.783Z,12.29
2023-02-23T10:49:56.964Z,12.50
2023-02-23T10:52:33.969Z,12.06
2023-02-23T10:55:04.464Z,12.41
2023-02-23T10:57:32.934Z,12.62
2023-02-23T11:00:09.095Z,12.73
2023-02-23T11:02:36.737Z,13.01
2023-02-23T11:05:05.040Z,13.08
2023-02-23T11:07:33.318Z,12.88
2023-02-23T11:10:18.943Z,12.91
2023-02-23T11:12:46.142Z,13.15
2023-02-23T11:15:35.345Z,13.33
2023-02-23T11:18:06.995Z,13.28
2023-02-23T11:20:41.816Z,13.29
2023-02-23T11:23:31.829Z,13.33
2023-02-23T11:26:09.977Z,13.06
2023-02-23T11:28:41.220Z,13.35
2023-02-23T11:31:16.772Z,13.40
2023-02-23T11:33:47.241Z,13.11
2023-02-23T11:36:14.497Z,12.88
2023-02-23T11:38:41.548Z,12.94
2023-02-23T11:41:19.757Z,12.76
2023-02-23T11:43:51.276Z,12.73
2023-02-23T11:46:20.526Z,12.82
2023-02-23T11:49:07.940Z,12.96
2023-02-23T11:51:37.533Z,12.95
2023-02-23T11:54:10.406Z,13.22
2023-02-23T11:56:40.018Z,13.45
2023-02-23T11:59:08.446Z,13.23
2023-02-23T12:01:43.986Z,13.36
2023-02-23T12:04:30.350Z,13.35
2023-02-23T12:07:19.944Z,13.18
2023-02-23T12:09:48.590Z,12.83
2023-02-23T12:12:18.446Z,13.15
2023-02-23T12:14:49.866Z,13.52
2023-02-23T12:17:25.218Z,13.72
2023-02-23T12:20:04.335Z,13.91
2023-02-23T12:22:36.641Z,13.79
2023-02-23T12:25:05.159Z,13.98
2023-02-23T12:27:41.804Z,14.21
2023-02-23T12:30:11.935Z,14.15
2023-02-23T12:32:54.118Z,14.04
2023-02-23T12:35:21.148Z,13.81
2023-02-23T12:38:27.855Z,13.88
2023-02-23T12:41:02.008Z,13.78
2023-02-23T12:43:34.188Z,13.57
2023-02-23T12:46:12.760Z,13.61
2023-02-23T12:48:47.830Z,13.53
2023-02-23T12:51:30.243Z,13.54
2023-02-23T12:53:57.548Z,13.52
2023-02-23T12:56:44.253Z,13.48
2023-02-23T12:59:26.853Z,13.31
2023-02-23T13:02:04.276Z,13.51
2023-02-23T13:04:41.012Z,13.46
2023-02-23T13:07:18.499Z,13.40
2023-02-23T13:09:45.763Z,13.33
2023-02-23T13:12:12.713Z,13.45
2023-02-23T13:14:46.033Z,13.32
2023-02-23T13:17:18.966Z,13.30
2023-02-23T13:19:53.787Z,13.29
2023-02-23T13:22:30.785Z,13.41
2023-02-23T13:25:05.264Z,13.45
2023-02-23T13:27:37.579Z,13.43
2023-02-23T13:30:09.576Z,13.60
2023-02-23T13:32:38.913Z,13.76
2023-02-23T13:35:08.263Z,13.82
2023-02-23T13:37:43.239Z,13.61
2023-02-23T13:40:29.476Z,13.71
2023-02-23T13:43:09.838Z,13.63
2023-02-23T13:45:56.503Z,13.50
2023-02-23T13:48:55.290Z,13.47
2023-02-23T13:51:23.616Z,13.43
2023-02-23T13:54:01.624Z,13.27
2023-02-23T13:56:31.464Z,13.04
2023-02-23T13:59:03.709Z,13.00
2023-02-23T14:01:37.469Z,12.89
2023-02-23T14:04:07.454Z,12.68
2023-02-23T14:06:35.084Z,12.67
2023-02-23T14:09:13.479Z,12.65
2023-02-23T14:11:46.938Z,12.69
2023-02-23T14:14:34.045Z,12.69
2023-02-23T14:17:17.569Z,12.78
2023-02-23T14:19:59.114Z,12.84
2023-02-23T14:22:28.356Z,12.83
2023-02-23T14:25:14.044Z,12.89
2023-02-23T14:27:44.582Z,12.92
2023-02-23T14:30:11.479Z,12.95
2023-02-23T14:32:40.307Z,13.01
2023-02-23T14:35:29.788Z,13.02
2023-02-23T14:38:00.401Z,12.97
2023-02-23T14:40:34.986Z,12.97
2023-02-23T14:43:03.897Z,12.93
2023-02-23T14:45:31.791Z,12.87
2023-02-23T14:48:03.038Z,12.81
2023-02-23T14:50:34.489Z,12.84
2023-02-23T14:53:04.477Z,12.87
2023-02-23T14:55:37.570Z,12.89
2023-02-23T14:58:21.310Z,12.87
2023-02-23T15:00:49.461Z,12.89
2023-02-23T15:03:16.890Z,12.85
2023-02-23T15:05:45.168Z,12.82
2023-02-23T15:08:17.214Z,12.82
2023-02-23T15:10:47.962Z,12.80
2023-02-23T15:13:41.306Z,12.74
2023-02-23T15:16:34.437Z,12.66
2023-02-23T15:19:29.837Z,12.62
2023-02-23T15:21:58.269Z,12.59
2023-02-23T15:24:27.839Z,12.51
2023-02-23T15:26:56.734Z,12.51
2023-02-23T15:29:33.800Z,12.44
2023-02-23T15:32:24.089Z,12.36
2023-02-23T15:34:53.184Z,12.24
2023-02-23T15:37:31.716Z,12.17
2023-02-23T15:40:10.319Z,12.08
2023-02-23T15:42:47.108Z,11.98
2023-02-23T15:45:34.844Z,12.00
2023-02-23T15:48:06.955Z,11.97
2023-02-23T15:50:37.302Z,11.86
2023-02-23T15:53:13.463Z,11.82
2023-02-23T15:55:42.790Z,11.80
2023-02-23T15:58:23.695Z,11.72
2023-02-23T16:00:55.656Z,11.67
2023-02-23T16:03:24.716Z,11.69
2023-02-23T16:06:05.539Z,11.68
2023-02-23T16:08:33.804Z,11.62
2023-02-23T16:11:16.113Z,11.58
2023-02-23T16:13:47.996Z,11.49
2023-02-23T16:16:21.104Z,11.50
2023-02-23T16:18:52.800Z,11.50
2023-02-23T16:21:23.885Z,11.44
2023-02-23T16:23:53.400Z,11.40
2023-02-23T16:26:44.166Z,11.26
2023-02-23T16:29:14.777Z,11.19
2023-02-23T16:31:45.335Z,11.08
2023-02-23T16:34:26.432Z,11.04
2023-02-23T16:37:00.498Z,11.00
2023-02-23T16:39:31.797Z,11.00
2023-02-23T16:41:59.558Z,10.92
2023-02-23T16:44:34.219Z,10.87
2023-02-23T16:47:12.824Z,10.80
2023-02-23T16:49:40.169Z,10.78
2023-02-23T16:52:16.498Z,10.74
2023-02-23T16:54:44.292Z,10.68
2023-02-23T16:57:18.598Z,10.64
2023-02-23T16:59:50.958Z,10.60
2023-02-23T17:02:18.957Z,10.54
2023-02-23T17:04:49.234Z,10.50
2023-02-23T17:07:17.677Z,10.43
2023-02-23T17:09:46.449Z,10.42
2023-02-23T17:12:18.434Z,10.38
2023-02-23T17:14:46.366Z,10.39
2023-02-23T17:17:15.738Z,10.39
2023-02-23T17:19:44.652Z,10.35
2023-02-23T17:22:13.191Z,10.26
2023-02-23T17:24:41.487Z,10.22
2023-02-23T17:27:09.263Z,10.17
2023-02-23T17:29:36.800Z,10.12
2023-02-23T17:32:04.540Z,10.06
2023-02-23T17:34:32.183Z,10.12
2023-02-23T17:37:02.083Z,10.07
2023-02-23T17:39:29.339Z,10.01
2023-02-23T17:41:59.146Z,10.16
2023-02-23T17:44:28.212Z,10.30
2023-02-23T17:46:56.282Z,10.36
2023-02-23T17:49:23.898Z,10.22
2023-02-23T17:51:51.916Z,10.13
2023-02-23T17:54:20.023Z,10.16
2023-02-23T17:56:50.981Z,10.06
2023-02-23T17:59:18.849Z,10.01
2023-02-23T18:01:49.072Z,10.01
2023-02-23T18:04:19.775Z,10.09
2023-02-23T18:06:47.781Z,10.26
2023-02-23T18:09:15.471Z,10.35
2023-02-23T18:11:43.189Z,10.42
2023-02-23T18:14:14.608Z,10.39
2023-02-23T18:16:42.894Z,10.35
2023-02-23T18:19:10.839Z,10.44
2023-02-23T18:21:41.087Z,10.45
2023-02-23T18:24:09.163Z,10.48
2023-02-23T18:26:38.980Z,10.48
2023-02-23T18:29:10.437Z,10.54
2023-02-23T18:31:38.742Z,10.58
2023-02-23T18:34:07.097Z,10.51
2023-02-23T18:36:36.570Z,10.50
2023-02-23T18:39:08.179Z,10.42
2023-02-23T18:41:36.590Z,10.41
2023-02-23T18:44:08.805Z,10.39
2023-02-23T18:46:39.639Z,10.38
2023-02-23T18:49:07.835Z,10.35
2023-02-23T18:51:37.456Z,10.30
2023-02-23T18:54:17.341Z,10.35
2023-02-23T18:56:47.966Z,10.36
2023-02-23T18:59:17.499Z,10.31
2023-02-23T19:01:48.123Z,10.23
2023-02-23T19:04:17.804Z,10.21
2023-02-23T19:06:47.694Z,10.14
2023-02-23T19:09:20.434Z,10.04
2023-02-23T19:11:50.912Z,9.99
2023-02-23T19:14:32.903Z,9.98
2023-02-23T19:17:09.486Z,10.05
2023-02-23T19:19:37.349Z,10.13
2023-02-23T19:22:06.706Z,10.09
2023-02-23T19:24:37.001Z,10.10
2023-02-23T19:27:05.021Z,10.09
2023-02-23T19:29:32.837Z,10.11
2023-02-23T19:32:01.216Z,10.09
2023-02-23T19:34:28.834Z,10.03
2023-02-23T19:36:57.012Z,9.96
2023-02-23T19:39:26.343Z,9.95
2023-02-23T19:41:54.608Z,9.97
2023-02-23T19:44:25.661Z,9.96
2023-02-23T19:46:53.377Z,9.98
2023-02-23T19:49:23.858Z,9.95
2023-02-23T19:51:53.662Z,9.94
2023-02-23T19:54:21.915Z,9.95
2023-02-23T19:56:50.575Z,9.95
2023-02-23T19:59:21.012Z,9.96
2023-02-23T20:01:52.054Z,9.93
2023-02-23T20:04:21.277Z,9.88
2023-02-23T20:06:49.706Z,9.93
2023-02-23T20:09:19.011Z,9.87
2023-02-23T20:11:49.358Z,9.85
2023-02-23T20:14:21.241Z,9.81
2023-02-23T20:16:49.827Z,9.77
2023-02-23T20:19:21.145Z,9.78
2023-02-23T20:21:50.487Z,9.81
2023-02-23T20:24:20.078Z,9.76
2023-02-23T20:26:49.451Z,9.73
2023-02-23T20:29:19.403Z,9.73
2023-02-23T20:31:52.594Z,9.73
2023-02-23T20:34:24.174Z,9.72
2023-02-23T20:36:53.217Z,9.76
2023-02-23T20:39:21.396Z,9.75
2023-02-23T20:41:53.625Z,9.77
2023-02-23T20:44:22.194Z,9.75
2023-02-23T20:46:51.025Z,9.77
2023-02-23T20:49:19.749Z,9.76
2023-02-23T20:51:49.152Z,9.76
2023-02-23T20:54:17.951Z,9.79
2023-02-23T20:56:46.356Z,9.74
2023-02-23T20:59:16.874Z,9.67
2023-02-23T21:01:45.421Z,9.65
2023-02-23T21:04:14.022Z,9.60
2023-02-23T21:06:44.298Z,9.53
2023-02-23T21:09:17.830Z,9.51
2023-02-23T21:11:48.774Z,9.51
2023-02-23T21:14:17.004Z,9.46
2023-02-23T21:16:47.353Z,9.48
2023-02-23T21:19:17.554Z,9.56
2023-02-23T21:21:46.846Z,9.61
2023-02-23T21:24:15.249Z,9.61
2023-02-23T21:26:43.214Z,9.62
2023-02-23T21:29:15.493Z,9.63
2023-02-23T21:31:44.149Z,9.59
2023-02-23T21:34:15.598Z,9.61
2023-02-23T21:36:44.013Z,9.55
2023-02-23T21:39:11.318Z,9.51
2023-02-23T21:41:39.360Z,9.51
2023-02-23T21:44:08.351Z,9.45
2023-02-23T21:46:36.415Z,9.47
2023-02-23T21:49:07.688Z,9.43
2023-02-23T21:51:36.879Z,9.39
2023-02-23T21:54:04.719Z,9.36
2023-02-23T21:56:37.952Z,9.31
2023-02-23T21:59:08.261Z,9.28
2023-02-23T22:01:36.650Z,9.26
2023-02-23T22:04:05.053Z,9.26
2023-02-23T22:06:38.448Z,9.28
2023-02-23T22:09:06.000Z,9.31
2023-02-23T22:11:36.453Z,9.31
2023-02-23T22:14:06.595Z,9.30
2023-02-23T22:16:38.918Z,9.32
2023-02-23T22:19:08.744Z,9.35
2023-02-23T22:21:37.073Z,9.38
2023-02-23T22:24:05.742Z,9.43
2023-02-23T22:26:34.592Z,9.37
2023-02-23T22:29:01.666Z,9.36
2023-02-23T22:31:28.967Z,9.35
2023-02-23T22:33:56.803Z,9.36
2023-02-23T22:36:26.655Z,9.36
2023-02-23T22:38:57.290Z,9.35
2023-02-23T22:41:29.496Z,9.36
2023-02-23T22:43:56.996Z,9.35
2023-02-23T22:46:27.365Z,9.35
2023-02-23T22:48:54.275Z,9.34
2023-02-23T22:51:21.995Z,9.36
2023-02-23T22:53:49.125Z,9.34
2023-02-23T22:56:16.454Z,9.37
2023-02-23T22:58:43.949Z,9.41
2023-02-23T23:01:11.884Z,9.42
2023-02-23T23:03:40.641Z,9.41
2023-02-23T23:06:11.137Z,9.40
2023-02-23T23:08:41.866Z,9.41
2023-02-23T23:11:14.109Z,9.40
2023-02-23T23:13:45.938Z,9.41
2023-02-23T23:16:25.588Z,9.47
2023-02-23T23:19:02.617Z,9.47
2023-02-23T23:21:31.937Z,9.44
2023-02-23T23:24:00.998Z,9.39
2023-02-23T23:26:29.141Z,9.35
2023-02-23T23:28:59.949Z,9.33
2023-02-23T23:31:34.402Z,9.31
2023-02-23T23:34:09.593Z,9.35
2023-02-23T23:36:50.164Z,9.37
2023-02-23T23:39:18.913Z,9.38
2023-02-23T23:41:48.277Z,9.35
2023-02-23T23:44:29.319Z,9.34
2023-02-23T23:46:58.215Z,9.31
2023-02-23T23:49:28.543Z,9.27
2023-02-23T23:51:56.651Z,9.30
2023-02-23T23:54:26.233Z,9.24
2023-02-23T23:56:55.952Z,9.27
2023-02-23T23:59:23.647Z,9.26
